Time;durP1;ratioP1;P1;durP2;ratioP2;P2;SDS_P1;SDS_P2;PMS_P1;PMS_P2;Temp;Humidity;BMP_temperature;BMP_pressure;BME280_temperature;BME280_humidity;BME280_pressure;Samples;Min_cycle;Max_cycle;Signal;HPM_P1;HPM_P2
2021/08/27 00:02:04;;;;;;;;;6.50;4.75;;;;;23.44;42.24;101505.63;5095310;27;51344;-59
2021/08/27 00:04:29;;;;;;;;;4.00;4.00;;;;;23.42;42.28;101503.09;5094104;27;51099;-58
2021/08/27 00:06:54;;;;;;;;;6.00;2.50;;;;;23.43;41.80;101506.69;5086251;27;51008;-59
2021/08/27 00:09:20;;;;;;;;;2.25;2.25;;;;;23.41;41.85;101498.63;5094762;27;51171;-59
2021/08/27 00:11:45;;;;;;;;;5.75;3.75;;;;;23.43;42.37;101506.69;5099122;27;51309;-58
2021/08/27 00:14:10;;;;;;;;;4.25;4.00;;;;;23.41;41.82;101500.56;5088525;27;51737;-58
2021/08/27 00:16:36;;;;;;;;;8.00;3.75;;;;;23.41;42.07;101497.78;5092625;27;51076;-59
2021/08/27 00:19:02;;;;;;;;;3.00;3.00;;;;;23.40;42.19;101502.47;5098615;27;51405;-59
2021/08/27 00:21:27;;;;;;;;;5.25;3.75;;;;;23.39;42.31;101498.03;5098629;27;51597;-59
2021/08/27 00:23:52;;;;;;;;;4.50;4.50;;;;;23.40;42.50;101504.41;5096839;27;51893;-58
2021/08/27 00:26:18;;;;;;;;;4.75;3.50;;;;;23.39;41.92;101500.78;5088684;27;51119;-58
2021/08/27 00:28:43;;;;;;;;;5.00;4.00;;;;;23.38;42.11;101499.09;5082503;27;51483;-59
2021/08/27 00:31:08;;;;;;;;;5.75;4.00;;;;;23.37;42.24;101485.50;5060569;27;51137;-59
2021/08/27 00:33:34;;;;;;;;;4.75;4.25;;;;;23.37;42.02;101497.41;5098231;27;51903;-58
2021/08/27 00:35:59;;;;;;;;;5.75;4.75;;;;;23.36;42.62;101490.19;5088169;27;51112;-60
2021/08/27 00:38:24;;;;;;;;;3.25;3.25;;;;;23.37;42.31;101493.81;5079591;27;51195;-59
2021/08/27 00:40:50;;;;;;;;;5.75;4.25;;;;;23.35;42.14;101491.28;5092132;27;51065;-59
2021/08/27 00:43:15;;;;;;;;;5.50;4.00;;;;;23.35;42.41;101487.66;5097196;27;51862;-59
2021/08/27 00:45:46;;;;;;;;;7.50;4.00;;;;;23.35;42.32;101482.97;5086033;27;51064;-60
2021/08/27 00:48:13;;;;;;;;;6.50;4.75;;;;;23.35;42.52;101479.38;5078553;27;51323;-59
2021/08/27 00:50:39;;;;;;;;;7.00;4.75;;;;;23.34;42.27;101489.53;5077489;27;51232;-59
2021/08/27 00:53:05;;;;;;;;;7.00;4.25;;;;;23.33;42.32;101485.94;5088110;27;51077;-60
2021/08/27 00:55:31;;;;;;;;;5.75;4.50;;;;;23.33;42.54;101485.09;5087440;27;51115;-59
2021/08/27 00:57:57;;;;;;;;;4.00;4.00;;;;;23.33;42.41;101485.09;5094887;27;51248;-59
2021/08/27 01:00:23;;;;;;;;;7.75;4.75;;;;;23.32;42.13;101483.41;5093240;27;51267;-59
2021/08/27 01:02:49;;;;;;;;;12.75;4.00;;;;;23.31;42.58;101481.72;5076862;27;51121;-58
2021/08/27 01:05:14;;;;;;;;;7.00;5.00;;;;;23.30;42.66;101471.72;5090560;27;51160;-59
2021/08/27 01:07:46;;;;;;;;;5.75;4.50;;;;;23.30;42.55;101471.72;5096834;27;51094;-59
2021/08/27 01:10:29;;;;;;;;;5.00;5.00;;;;;23.29;42.91;101470.03;5071803;28;51053;-58
2021/08/27 01:13:19;;;;;;;;;8.00;5.00;;;;;23.29;43.00;101473.66;5090825;27;51986;-58
2021/08/27 01:15:56;;;;;;;;;7.00;5.25;;;;;23.28;42.61;101476.66;5087101;27;51434;-59
2021/08/27 01:18:32;;;;;;;;;6.75;4.75;;;;;23.27;42.44;101466.66;5077226;27;51172;-59
2021/08/27 01:21:16;;;;;;;;;7.00;4.25;;;;;23.26;42.39;101473.28;5086383;27;51030;-58
2021/08/27 01:23:46;;;;;;;;;5.50;4.25;;;;;23.25;42.63;101472.44;5077828;27;51906;-59
2021/08/27 01:26:14;;;;;;;;;6.50;5.00;;;;;23.26;42.99;101484.31;5084613;27;50899;-59
2021/08/27 01:28:44;;;;;;;;;9.50;5.00;;;;;23.24;42.51;101472.63;5084990;27;51190;-59
2021/08/27 01:31:25;;;;;;;;;7.50;7.00;;;;;23.23;43.06;101468.16;5078037;27;51278;-59
2021/08/27 01:34:12;;;;;;;;;10.25;4.75;;;;;23.22;42.56;101475.63;5076281;27;50972;-59
2021/08/27 01:36:39;;;;;;;;;6.00;4.75;;;;;23.21;42.69;101471.16;5077651;27;51317;-60
2021/08/27 01:39:06;;;;;;;;;7.00;3.50;;;;;23.21;42.61;101470.31;5075844;27;51165;-59
2021/08/27 01:41:35;;;;;;;;;7.50;5.00;;;;;23.19;42.59;101472.47;5039825;27;1146948;-58
2021/08/27 01:44:05;;;;;;;;;6.75;3.50;;;;;23.19;42.74;101472.47;5082954;27;51042;-59
2021/08/27 01:46:36;;;;;;;;;6.75;5.00;;;;;23.18;42.47;101474.38;5092540;27;51278;-58
2021/08/27 01:49:07;;;;;;;;;7.25;4.75;;;;;23.16;42.58;101465.47;5097453;27;51107;-59
2021/08/27 01:51:35;;;;;;;;;6.00;3.25;;;;;23.16;43.17;101467.41;5097529;27;50976;-59
2021/08/27 01:54:03;;;;;;;;;7.25;6.00;;;;;23.16;42.74;101461.88;5095540;27;51867;-59
2021/08/27 01:56:28;;;;;;;;;5.25;5.25;;;;;23.15;42.74;101471.25;5077680;27;51063;-59
2021/08/27 01:58:57;;;;;;;;;9.50;6.50;;;;;23.14;42.72;101469.56;5077305;27;51267;-59
2021/08/27 02:01:25;;;;;;;;;5.50;4.00;;;;;23.13;42.67;101474.19;5079215;27;51105;-59
2021/08/27 02:03:53;;;;;;;;;8.50;6.00;;;;;23.13;43.24;101467.84;5078504;27;52403;-59
2021/08/27 02:06:20;;;;;;;;;6.50;2.25;;;;;23.11;43.13;101470.81;5083420;27;51191;-59
2021/08/27 02:08:47;;;;;;;;;7.00;4.50;;;;;23.11;43.32;101472.75;5077533;27;51179;-58
2021/08/27 02:11:12;;;;;;;;;8.00;5.25;;;;;23.10;43.07;101468.28;5077526;27;51437;-59
2021/08/27 02:13:39;;;;;;;;;9.00;6.25;;;;;;;;5078150;27;51806;-59
2021/08/27 02:16:06;;;;;;;;;6.50;4.00;;;;;23.08;43.38;101471.28;5083706;27;51428;-59
2021/08/27 02:18:33;;;;;;;;;8.25;6.75;;;;;23.08;42.93;101467.69;5077192;27;51321;-60
2021/08/27 02:21:00;;;;;;;;;7.25;5.25;;;;;23.07;42.79;101474.28;5077246;27;51040;-58
2021/08/27 02:23:27;;;;;;;;;7.50;6.00;;;;;23.06;42.88;101467.06;5079578;27;50986;-59
2021/08/27 02:25:55;;;;;;;;;6.00;4.50;;;;;23.06;43.36;101467.06;5089018;27;51356;-59
2021/08/27 02:28:22;;;;;;;;;5.75;5.25;;;;;23.05;43.22;101474.50;5079896;27;51718;-60
2021/08/27 02:30:48;;;;;;;;;5.00;3.50;;;;;23.04;43.13;101470.06;5074759;28;51176;-58
2021/08/27 02:33:16;;;;;;;;;6.00;4.25;;;;;23.03;43.37;101477.50;5081898;27;51771;-59
2021/08/27 02:35:42;;;;;;;;;5.00;4.25;;;;;23.04;43.45;101475.56;5086167;27;50956;-60
2021/08/27 02:38:12;;;;;;;;;6.75;5.50;;;;;23.02;43.51;101473.00;5079253;27;51320;-60
2021/08/27 02:40:37;;;;;;;;;5.00;5.00;;;;;23.02;43.55;101474.94;5097120;27;51020;-59
2021/08/27 02:43:03;;;;;;;;;4.25;3.75;;;;;23.02;43.22;101469.41;5094922;27;51878;-60
2021/08/27 02:45:28;;;;;;;;;6.50;5.75;;;;;23.01;42.91;101473.25;5087199;27;51150;-59
2021/08/27 02:47:54;;;;;;;;;7.00;5.00;;;;;22.99;43.10;101478.16;5090380;27;51126;-59
2021/08/27 02:50:19;;;;;;;;;10.00;7.50;;;;;22.97;43.51;101472.84;5094213;27;51259;-61
2021/08/27 02:53:12;;;;;;;;;5.50;3.25;;;;;22.97;43.46;101472.00;5094700;27;51795;-60
2021/08/27 02:55:43;;;;;;;;;8.50;4.00;;;;;22.97;43.08;101470.09;5089659;27;51084;-60
2021/08/27 02:58:17;;;;;;;;;6.50;5.25;;;;;22.97;43.44;101472.84;5076486;27;51188;-60
2021/08/27 03:00:55;;;;;;;;;8.75;7.00;;;;;22.96;43.65;101476.69;5078021;27;51144;-59
2021/08/27 03:03:25;;;;;;;;;5.75;4.00;;;;;22.95;43.24;101477.75;5084222;27;51890;-59
2021/08/27 03:05:56;;;;;;;;;6.00;4.50;;;;;22.96;43.42;101476.69;5077055;27;51276;-59
2021/08/27 03:08:23;;;;;;;;;6.75;4.00;;;;;22.95;43.42;101471.38;5076921;27;51040;-60
2021/08/27 03:10:59;;;;;;;;;4.25;4.25;;;;;22.93;43.66;101468.84;5086976;27;51165;-59
2021/08/27 03:13:39;;;;;;;;;4.00;4.00;;;;;22.93;43.72;101468.00;5076289;27;52077;-60
2021/08/27 03:16:08;;;;;;;;;6.00;4.50;;;;;22.93;43.71;101468.84;5090849;27;51035;-59
2021/08/27 03:18:53;;;;;;;;;7.75;4.00;;;;;22.92;43.41;101467.13;5076214;27;51167;-59
2021/08/27 03:21:30;;;;;;;;;7.75;4.00;;;;;22.92;43.14;101466.28;5077785;27;50979;-59
2021/08/27 03:24:07;;;;;;;;;4.75;4.75;;;;;22.91;43.71;101459.91;5090133;27;52108;-59
2021/08/27 03:26:33;;;;;;;;;7.25;6.00;;;;;22.90;43.54;101462.91;5079006;27;50977;-59
2021/08/27 03:29:03;;;;;;;;;9.00;7.00;;;;;22.90;43.27;101468.44;5077426;27;51263;-59
2021/08/27 03:31:30;;;;;;;;;8.75;4.75;;;;;22.89;43.12;101459.31;5076430;27;51195;-60
2021/08/27 03:33:59;;;;;;;;;5.25;5.25;;;;;22.87;43.75;101461.44;5076168;27;52183;-60
2021/08/27 03:36:30;;;;;;;;;3.00;3.00;;;;;22.88;43.62;101463.13;5094098;27;52448;-59
2021/08/27 03:38:57;;;;;;;;;7.25;4.25;;;;;22.87;43.31;101464.22;5095066;27;50975;-59
2021/08/27 03:41:29;;;;;;;;;6.75;5.25;;;;;22.87;43.52;101466.97;5076353;27;50984;-59
2021/08/27 03:43:55;;;;;;;;;4.75;4.75;;;;;22.87;43.66;101458.69;5075640;27;51747;-59
2021/08/27 03:46:22;;;;;;;;;7.50;4.75;;;;;22.87;43.48;101466.13;5081077;27;51570;-59
2021/08/27 03:48:49;;;;;;;;;7.25;5.75;;;;;22.85;43.46;101466.34;5075696;27;51008;-59
2021/08/27 03:51:16;;;;;;;;;5.25;3.50;;;;;22.85;44.01;101466.34;5079153;27;51218;-59
2021/08/27 03:53:44;;;;;;;;;6.50;5.00;;;;;22.84;43.80;101464.66;5075956;27;53570;-59
2021/08/27 03:56:11;;;;;;;;;10.25;5.25;;;;;22.85;44.06;101462.75;5085415;27;51196;-59
2021/08/27 03:58:37;;;;;;;;;7.00;4.00;;;;;22.84;43.52;101459.16;5093910;27;51163;-59
2021/08/27 04:01:04;;;;;;;;;4.25;3.50;;;;;22.84;43.69;101461.06;5091225;27;51295;-59
2021/08/27 04:03:29;;;;;;;;;8.75;6.75;;;;;22.84;44.21;101461.06;5075698;27;51804;-59
2021/08/27 04:05:59;;;;;;;;;9.00;7.25;;;;;22.83;43.61;101457.41;5088831;27;51057;-59
2021/08/27 04:08:25;;;;;;;;;7.25;5.00;;;;;22.82;44.12;101454.84;5076057;27;51156;-59
2021/08/27 04:10:50;;;;;;;;;6.00;4.50;;;;;22.82;44.32;101458.47;5078457;27;51098;-59
2021/08/27 04:13:16;;;;;;;;;7.00;5.00;;;;;22.82;43.97;101458.47;5095079;27;51212;-59
2021/08/27 04:15:41;;;;;;;;;12.25;6.00;;;;;22.81;43.86;101458.69;5083467;27;50980;-59
2021/08/27 04:18:06;;;;;;;;;9.75;7.25;;;;;22.80;44.25;101460.59;5087045;27;51225;-59
2021/08/27 04:20:32;;;;;;;;;9.25;5.00;;;;;22.80;44.33;101455.09;5094128;27;50961;-59
2021/08/27 04:22:57;;;;;;;;;9.75;6.00;;;;;22.78;44.27;101454.47;5095027;27;51015;-59
2021/08/27 04:25:22;;;;;;;;;5.75;4.25;;;;;22.80;43.81;101454.25;5094389;27;52364;-60
2021/08/27 04:27:48;;;;;;;;;5.75;5.00;;;;;22.79;44.15;101447.88;5078672;27;51229;-60
2021/08/27 04:30:13;;;;;;;;;9.00;6.50;;;;;22.78;43.99;101448.94;5076677;27;50977;-59
2021/08/27 04:32:38;;;;;;;;;6.75;5.00;;;;;22.79;44.52;101458.06;5075121;27;50975;-59
2021/08/27 04:35:04;;;;;;;;;8.00;6.00;;;;;22.79;44.57;101452.56;5093334;27;50934;-59
2021/08/27 04:37:30;;;;;;;;;6.50;5.25;;;;;22.78;44.40;101465.50;5095442;27;51069;-59
2021/08/27 04:39:56;;;;;;;;;7.50;5.25;;;;;22.77;44.29;101459.16;5093983;27;51320;-60
2021/08/27 04:42:21;;;;;;;;;7.50;5.75;;;;;22.77;43.98;101463.81;5076523;27;51596;-59
2021/08/27 04:44:47;;;;;;;;;4.50;4.00;;;;;22.78;44.30;101471.03;5087441;27;51687;-59
2021/08/27 04:47:12;;;;;;;;;7.50;6.25;;;;;22.77;44.11;101469.34;5093538;27;51112;-59
2021/08/27 04:49:38;;;;;;;;;6.75;6.00;;;;;22.77;44.01;101472.13;5084293;27;51036;-59
2021/08/27 04:52:04;;;;;;;;;8.75;7.75;;;;;22.77;44.00;101470.19;5087567;27;51607;-59
2021/08/27 04:54:29;;;;;;;;;10.50;5.25;;;;;22.78;44.83;101476.56;5084046;27;51084;-60
2021/08/27 04:56:54;;;;;;;;;8.00;7.75;;;;;22.78;44.58;101479.31;5093988;27;51075;-59
2021/08/27 04:59:20;;;;;;;;;10.00;4.50;;;;;22.77;44.43;101477.63;5088488;27;51129;-59
2021/08/27 05:01:45;;;;;;;;;6.25;5.50;;;;;22.76;44.54;101479.56;5091899;27;51108;-60
2021/08/27 05:04:10;;;;;;;;;7.75;6.00;;;;;22.77;44.98;101481.25;5083550;27;53110;-60
2021/08/27 05:06:36;;;;;;;;;8.25;6.00;;;;;22.77;44.68;101483.16;5096741;27;50974;-59
2021/08/27 05:09:01;;;;;;;;;5.00;5.00;;;;;22.74;44.54;101489.97;5080134;27;51071;-59
2021/08/27 05:11:26;;;;;;;;;6.50;4.25;;;;;22.75;44.46;101488.06;5087359;27;51979;-59
2021/08/27 05:13:52;;;;;;;;;8.00;6.25;;;;;22.74;44.89;101495.50;5078163;27;51311;-59
2021/08/27 05:16:17;;;;;;;;;7.25;6.25;;;;;22.74;44.56;101502.94;5078178;27;51124;-59
2021/08/27 05:18:42;;;;;;;;;8.50;8.25;;;;;22.74;45.01;101502.94;5079892;27;50944;-59
2021/08/27 05:21:08;;;;;;;;;6.00;5.00;;;;;22.74;44.69;101502.94;5083677;27;51956;-60
2021/08/27 05:23:33;;;;;;;;;7.25;6.50;;;;;22.73;45.10;101509.53;5078193;27;50984;-59
2021/08/27 05:25:58;;;;;;;;;10.25;7.00;;;;;22.73;44.69;101506.78;5088428;27;51250;-59
2021/08/27 05:28:24;;;;;;;;;5.50;4.00;;;;;22.73;44.60;101506.78;5085680;27;51293;-59
2021/08/27 05:30:49;;;;;;;;;9.00;6.00;;;;;22.73;44.74;101504.88;5095135;27;52696;-59
2021/08/27 05:33:15;;;;;;;;;6.75;6.50;;;;;22.72;45.04;101508.69;5085448;27;51114;-58
2021/08/27 05:35:40;;;;;;;;;6.00;4.75;;;;;22.72;44.93;101510.63;5090727;27;51695;-59
2021/08/27 05:38:06;;;;;;;;;8.25;8.00;;;;;22.73;44.88;101509.53;5095000;27;51130;-59
2021/08/27 05:40:31;;;;;;;;;9.50;6.75;;;;;22.73;44.84;101512.31;5096160;27;51117;-60
2021/08/27 05:42:56;;;;;;;;;8.00;7.25;;;;;22.74;45.28;101514.00;5092557;27;51254;-57
2021/08/27 05:45:22;;;;;;;;;7.75;6.25;;;;;22.74;45.41;101509.31;5087375;27;51096;-58
2021/08/27 05:47:47;;;;;;;;;6.00;6.00;;;;;22.75;45.12;101513.78;5087868;27;51349;-58
2021/08/27 05:50:15;;;;;;;;;5.75;5.50;;;;;22.77;45.42;101511.63;5095913;27;50937;-58
2021/08/27 05:52:40;;;;;;;;;4.00;4.00;;;;;22.78;45.23;101518.00;5090533;27;51110;-59
2021/08/27 05:55:06;;;;;;;;;7.25;5.25;;;;;22.80;45.17;101517.78;5090067;27;51169;-57
2021/08/27 05:57:32;;;;;;;;;8.25;6.00;;;;;22.81;46.02;101519.47;5085058;27;51014;-58
2021/08/27 05:59:58;;;;;;;;;9.25;8.50;;;;;22.83;45.41;101522.88;5084955;27;51090;-57
2021/08/27 06:02:23;;;;;;;;;5.00;5.00;;;;;22.85;45.87;101529.06;5090895;27;52252;-58
2021/08/27 06:04:48;;;;;;;;;7.75;6.00;;;;;22.86;45.61;101525.22;5090039;27;51223;-57
2021/08/27 06:07:14;;;;;;;;;9.00;6.75;;;;;22.86;45.99;101523.28;5086537;27;51204;-57
2021/08/27 06:09:41;;;;;;;;;7.25;6.00;;;;;22.88;45.87;101534.13;5085084;27;51640;-58
2021/08/27 06:12:07;;;;;;;;;8.00;7.00;;;;;22.89;46.61;101536.66;5095475;27;51333;-57
2021/08/27 06:14:32;;;;;;;;;7.75;7.75;;;;;22.91;46.64;101541.94;5088012;27;51085;-58
2021/08/27 06:16:58;;;;;;;;;7.75;5.50;;;;;22.93;47.41;101537.94;5094426;27;51097;-57
2021/08/27 06:19:23;;;;;;;;;8.25;5.25;;;;;22.94;47.39;101545.16;5085373;27;51180;-58
2021/08/27 06:21:49;;;;;;;;;5.25;5.25;;;;;22.96;47.28;101547.69;5088508;27;51108;-59
2021/08/27 06:24:14;;;;;;;;;10.50;7.25;;;;;22.96;46.81;101540.25;5097324;27;51043;-59
2021/08/27 06:26:39;;;;;;;;;7.25;6.00;;;;;22.98;46.67;101542.78;5097817;27;51188;-60
2021/08/27 06:29:05;;;;;;;;;9.50;7.75;;;;;23.00;46.87;101544.22;5095732;27;51906;-61
2021/08/27 06:31:32;;;;;;;;;8.00;6.75;;;;;23.01;47.12;101543.16;5097149;27;50997;-60
2021/08/27 06:33:57;;;;;;;;;8.25;5.75;;;;;23.02;46.88;101553.13;5097556;27;51222;-60
2021/08/27 06:36:23;;;;;;;;;8.00;7.00;;;;;23.02;47.37;101547.63;5097535;27;51182;-59
2021/08/27 06:38:48;;;;;;;;;7.25;4.50;;;;;23.04;47.18;101552.94;5087199;27;51022;-60
2021/08/27 06:41:14;;;;;;;;;7.50;6.75;;;;;23.06;47.08;101561.00;5090047;27;51022;-60
2021/08/27 06:43:44;;;;;;;;;12.25;9.75;;;;;23.06;46.86;101561.00;5085169;27;50946;-61
2021/08/27 06:46:18;;;;;;;;;12.25;9.00;;;;;23.07;46.47;101569.06;5094274;27;51227;-60
2021/08/27 06:48:44;;;;;;;;;10.50;8.25;;;;;23.10;46.75;101565.84;5093732;27;52130;-60
2021/08/27 06:51:10;;;;;;;;;7.00;5.75;;;;;23.11;46.37;101563.94;5096807;27;51163;-59
2021/08/27 06:53:35;;;;;;;;;8.25;7.00;;;;;23.11;46.30;101567.53;5097491;27;51037;-59
2021/08/27 06:56:00;;;;;;;;;7.50;6.00;;;;;23.12;46.30;101563.72;5097204;27;51358;-59
2021/08/27 06:58:27;;;;;;;;;9.50;5.50;;;;;23.13;46.35;101562.63;5096490;27;51596;-59
2021/08/27 07:00:52;;;;;;;;;13.00;8.75;;;;;23.14;46.48;101574.56;5097121;27;50946;-59
2021/08/27 07:03:18;;;;;;;;;7.75;6.50;;;;;23.14;46.57;101574.56;5097163;27;51185;-59
2021/08/27 07:05:43;;;;;;;;;9.75;7.00;;;;;23.15;46.33;101579.03;5097245;27;50986;-60
2021/08/27 07:08:09;;;;;;;;;9.00;7.25;;;;;23.16;46.49;101577.94;5096687;27;51239;-59
2021/08/27 07:10:35;;;;;;;;;13.00;9.50;;;;;23.16;46.39;101572.44;5096967;27;51019;-59
2021/08/27 07:13:01;;;;;;;;;7.75;7.75;;;;;23.16;46.22;101583.47;5096677;27;51285;-60
2021/08/27 07:15:26;;;;;;;;;7.75;7.25;;;;;23.17;46.03;101582.41;5097219;27;51294;-59
2021/08/27 07:17:52;;;;;;;;;7.50;7.25;;;;;23.17;46.04;101583.25;5095916;27;51958;-60
2021/08/27 07:20:18;;;;;;;;;10.25;9.00;;;;;23.19;45.68;101588.56;5096710;27;51101;-60
2021/08/27 07:22:45;;;;;;;;;11.25;7.25;;;;;23.19;45.94;101589.41;5096886;27;51125;-61
2021/08/27 07:25:11;;;;;;;;;9.75;7.50;;;;;23.19;45.84;101586.63;5096813;27;51044;-60
2021/08/27 07:27:37;;;;;;;;;10.00;7.25;;;;;23.20;45.71;101591.09;5096189;27;52034;-60
2021/08/27 07:30:04;;;;;;;;;6.00;6.00;;;;;23.20;45.60;101587.47;5096465;27;51472;-60
2021/08/27 07:32:30;;;;;;;;;11.75;8.00;;;;;23.21;46.14;101591.94;5096769;27;51100;-60
2021/08/27 07:34:55;;;;;;;;;9.25;7.50;;;;;23.21;45.85;101594.69;5078237;27;51265;-61
2021/08/27 07:37:20;;;;;;;;;8.25;8.00;;;;;23.21;46.03;101594.69;5077648;27;52738;-61
2021/08/27 07:39:46;;;;;;;;;9.25;7.50;;;;;23.22;45.49;101593.63;5096366;27;51012;-61
2021/08/27 07:42:11;;;;;;;;;10.00;7.50;;;;;23.23;45.37;101601.69;5095825;27;51012;-60
2021/08/27 07:44:37;;;;;;;;;8.25;7.50;;;;;23.24;45.99;101602.53;5096168;27;51284;-61
2021/08/27 07:47:03;;;;;;;;;7.50;7.25;;;;;23.24;45.84;101602.53;5096062;27;51824;-60
2021/08/27 07:49:29;;;;;;;;;11.50;8.00;;;;;23.24;45.94;101595.13;5095994;27;51136;-60
2021/08/27 07:51:56;;;;;;;;;12.50;8.00;;;;;23.25;45.64;101595.97;5096439;27;51193;-60
2021/08/27 07:54:22;;;;;;;;;12.25;9.00;;;;;23.25;45.50;101598.72;5096362;27;51119;-60
2021/08/27 07:56:47;;;;;;;;;9.50;7.75;;;;;23.26;45.62;101592.97;5095737;27;51048;-60
2021/08/27 07:59:13;;;;;;;;;10.75;9.50;;;;;23.27;45.61;101602.13;5095741;27;50994;-60
2021/08/27 08:01:38;;;;;;;;;12.75;10.75;;;;;23.27;45.47;101596.59;5096217;27;51128;-60
2021/08/27 08:04:04;;;;;;;;;9.00;8.00;;;;;23.27;45.77;101593.81;5096369;27;51330;-60
2021/08/27 08:06:31;;;;;;;;;6.00;6.00;;;;;23.28;45.58;101601.03;5095685;27;51769;-60
2021/08/27 08:08:57;;;;;;;;;9.50;8.25;;;;;23.27;45.50;101600.19;5090759;27;51058;-60
2021/08/27 08:11:23;;;;;;;;;9.75;9.75;;;;;23.29;45.13;101606.34;5075407;28;51035;-60
2021/08/27 08:13:48;;;;;;;;;7.00;7.00;;;;;23.29;45.61;101606.34;5075244;28;51019;-60
2021/08/27 08:16:13;;;;;;;;;9.75;7.50;;;;;23.30;45.27;101604.41;5075329;28;52008;-62
2021/08/27 08:18:40;;;;;;;;;7.50;6.25;;;;;23.31;45.38;101606.97;5075390;28;51152;-60
2021/08/27 08:21:06;;;;;;;;;11.75;9.25;;;;;23.32;45.00;101613.34;5075269;28;51017;-61
2021/08/27 08:23:32;;;;;;;;;9.00;9.00;;;;;23.33;45.07;101612.25;5075743;28;51333;-60
2021/08/27 08:25:58;;;;;;;;;10.25;7.25;;;;;23.35;45.36;101609.31;5076202;27;51145;-61
2021/08/27 08:28:24;;;;;;;;;8.25;7.75;;;;;23.35;44.82;101607.38;5095425;27;51599;-60
2021/08/27 08:30:51;;;;;;;;;4.25;4.00;;;;;23.36;45.28;101614.59;5097745;27;51009;-60
2021/08/27 08:33:17;;;;;;;;;6.00;6.00;;;;;23.38;44.77;101617.97;5099365;27;51116;-60
2021/08/27 08:35:43;;;;;;;;;7.75;6.25;;;;;23.40;44.80;101613.06;5098888;27;51118;-60
2021/08/27 08:38:08;;;;;;;;;10.50;7.75;;;;;23.41;44.91;101616.69;5098966;27;51199;-60
2021/08/27 08:40:42;;;;;;;;;8.75;7.50;;;;;23.43;45.08;101612.63;5099188;27;51098;-60
2021/08/27 08:43:08;;;;;;;;;7.00;6.25;;;;;23.44;45.08;101614.31;5099187;27;51125;-61
2021/08/27 08:45:38;;;;;;;;;6.75;6.25;;;;;23.46;44.81;101614.97;5098535;27;52095;-60
2021/08/27 08:48:05;;;;;;;;;6.00;5.25;;;;;23.47;44.47;101611.13;5098709;27;51132;-60
2021/08/27 08:50:31;;;;;;;;;8.75;6.50;;;;;23.49;44.74;101616.41;5098631;27;51121;-60
2021/08/27 08:52:58;;;;;;;;;5.25;4.00;;;;;23.51;44.25;101615.13;5099034;27;51206;-61
2021/08/27 08:55:24;;;;;;;;;6.25;5.50;;;;;23.53;44.60;101615.72;5098665;27;52892;-60
2021/08/27 08:57:51;;;;;;;;;9.00;4.75;;;;;23.54;44.14;101622.09;5098587;27;51036;-60
2021/08/27 09:00:16;;;;;;;;;6.00;6.00;;;;;23.55;44.17;101619.16;5098973;27;51082;-60
2021/08/27 09:02:42;;;;;;;;;7.25;5.75;;;;;23.58;43.94;101617.84;5098827;27;51406;-60
2021/08/27 09:05:07;;;;;;;;;9.00;5.00;;;;;23.60;43.67;101624.03;5098563;27;50996;-60
2021/08/27 09:07:33;;;;;;;;;5.25;5.25;;;;;23.62;43.90;101624.63;5098748;27;51117;-61
2021/08/27 09:09:59;;;;;;;;;6.25;5.00;;;;;23.65;43.94;101628.88;5084609;27;51531;-60
2021/08/27 09:12:26;;;;;;;;;9.25;6.75;;;;;23.66;44.10;101617.59;5077748;28;51127;-61
2021/08/27 09:14:55;;;;;;;;;5.00;3.75;;;;;23.68;44.02;101629.28;5077923;27;51968;-60
2021/08/27 09:17:30;;;;;;;;;7.00;4.75;;;;;23.70;43.71;101629.06;5078153;27;51500;-60
2021/08/27 09:19:56;;;;;;;;;10.50;5.75;;;;;23.72;43.82;101632.44;5077883;27;51075;-60
2021/08/27 09:22:22;;;;;;;;;3.00;3.00;;;;;23.74;43.30;101625.59;5078407;28;51327;-60
2021/08/27 09:25:05;;;;;;;;;7.00;4.25;;;;;23.75;43.67;101637.50;5077653;27;51001;-61
2021/08/27 09:27:31;;;;;;;;;4.25;4.00;;;;;23.77;43.03;101640.91;5091925;27;51217;-60
2021/08/27 09:29:58;;;;;;;;;4.00;4.00;;;;;23.77;43.26;101633.47;5098096;27;51076;-61
2021/08/27 09:32:29;;;;;;;;;6.00;3.75;;;;;23.80;43.02;101634.94;5098395;27;50907;-61
2021/08/27 09:35:02;;;;;;;;;6.25;4.00;;;;;23.81;43.09;101628.31;5098077;27;51135;-60
2021/08/27 09:37:39;;;;;;;;;6.00;5.00;;;;;23.83;43.09;101632.56;5098166;27;51282;-61
2021/08/27 09:40:07;;;;;;;;;4.75;3.25;;;;;23.85;42.73;101638.69;5098240;27;51053;-60
2021/08/27 09:42:46;;;;;;;;;6.75;5.25;;;;;23.86;42.96;101625.72;5098004;27;51125;-62
2021/08/27 09:45:12;;;;;;;;;4.50;3.25;;;;;23.87;42.90;101624.66;5098068;27;51123;-61
2021/08/27 09:47:55;;;;;;;;;5.50;5.25;;;;;23.90;42.80;101629.72;5097977;27;51129;-60
2021/08/27 09:50:24;;;;;;;;;10.00;6.00;;;;;23.91;42.79;101634.19;5097825;27;51159;-59
2021/08/27 09:52:59;;;;;;;;;5.00;5.00;;;;;23.93;42.55;101634.81;5098009;27;51396;-60
2021/08/27 09:55:26;;;;;;;;;6.00;4.50;;;;;23.94;42.92;101633.72;5097574;27;52081;-59
2021/08/27 09:58:04;;;;;;;;;5.25;5.25;;;;;23.97;42.82;101637.97;5097449;27;51106;-60
2021/08/27 10:00:29;;;;;;;;;4.75;3.50;;;;;23.98;42.62;101631.38;5097644;27;51120;-60
2021/08/27 10:02:56;;;;;;;;;7.00;5.75;;;;;23.99;42.61;101625.63;5097334;27;51434;-59
2021/08/27 10:05:36;;;;;;;;;3.25;3.25;;;;;24.01;42.19;101626.22;5097302;27;51982;-60
2021/08/27 10:08:33;;;;;;;;;4.25;4.25;;;;;24.03;42.20;101623.22;5097340;27;51397;-60
2021/08/27 10:11:22;;;;;;;;;6.00;4.25;;;;;24.04;42.18;101617.47;5084790;27;51015;-60
2021/08/27 10:13:48;;;;;;;;;4.50;3.50;;;;;24.07;41.95;101618.91;5097723;27;51992;-59
2021/08/27 10:16:14;;;;;;;;;6.00;5.00;;;;;24.09;42.06;101622.31;5097321;27;52619;-59
2021/08/27 10:18:41;;;;;;;;;5.00;4.00;;;;;24.10;42.37;101621.25;5097173;27;51003;-60
2021/08/27 10:21:06;;;;;;;;;5.50;2.75;;;;;24.11;42.19;101623.78;5097415;27;51040;-60
2021/08/27 10:23:32;;;;;;;;;3.50;3.50;;;;;24.14;42.22;101623.31;5097691;27;51167;-61
2021/08/27 10:26:17;;;;;;;;;3.00;3.00;;;;;24.15;41.50;101627.78;5095561;27;50931;-59
2021/08/27 10:28:44;;;;;;;;;9.00;5.50;;;;;24.15;41.74;101616.72;5076171;28;51318;-59
2021/08/27 10:31:09;;;;;;;;;3.00;3.00;;;;;24.16;41.80;101615.63;5076801;28;50978;-59
2021/08/27 10:33:41;;;;;;;;;2.00;2.00;;;;;24.19;41.34;101611.56;5076332;28;51179;-59
2021/08/27 10:36:27;;;;;;;;;4.25;2.50;;;;;24.19;41.74;101620.72;5076014;28;50978;-59
2021/08/27 10:38:55;;;;;;;;;3.00;3.00;;;;;24.21;41.29;101623.25;5075318;28;51338;-60
2021/08/27 10:41:40;;;;;;;;;4.00;3.00;;;;;24.22;41.43;101613.03;5076049;28;51129;-60
2021/08/27 10:44:16;;;;;;;;;3.00;2.25;;;;;24.23;41.20;101611.97;5067998;28;51464;-60
2021/08/27 10:46:44;;;;;;;;;1.75;1.75;;;;;24.23;41.03;101610.03;5075693;28;51945;-61
2021/08/27 10:49:18;;;;;;;;;3.50;3.00;;;;;24.25;41.17;101623.63;5076158;28;51312;-59
2021/08/27 10:51:46;;;;;;;;;3.25;2.50;;;;;24.25;41.10;101613.41;5076170;28;51010;-59
2021/08/27 10:54:13;;;;;;;;;2.50;2.00;;;;;24.25;41.12;101613.41;5075532;27;50986;-59
2021/08/27 10:56:47;;;;;;;;;1.25;1.25;;;;;24.25;40.67;101613.41;5075690;27;52309;-59
2021/08/27 10:59:14;;;;;;;;;3.00;2.25;;;;;24.26;40.83;101615.09;5075832;28;51130;-60
2021/08/27 11:02:04;;;;;;;;;2.00;2.00;;;;;24.26;40.66;101611.50;5075876;28;51028;-60
2021/08/27 11:04:40;;;;;;;;;2.00;1.75;;;;;24.26;40.74;101608.72;5070271;28;51618;-59
2021/08/27 11:07:18;;;;;;;;;3.00;1.50;;;;;24.25;40.63;101612.56;5080914;27;52194;-60
2021/08/27 11:10:15;;;;;;;;;3.00;1.25;;;;;24.25;40.97;101609.81;5097053;27;51675;-60
2021/08/27 11:12:42;;;;;;;;;3.00;2.00;;;;;24.24;40.63;101613.66;5042231;27;51380;-60
2021/08/27 11:15:23;;;;;;;;;2.25;1.00;;;;;24.24;40.81;101608.94;5065135;28;51180;-60
2021/08/27 11:18:13;;;;;;;;;2.25;2.25;;;;;24.23;40.66;101601.72;5087678;27;51086;-60
2021/08/27 11:20:39;;;;;;;;;2.00;1.75;;;;;24.24;40.57;101619.19;5071679;27;51135;-61
2021/08/27 11:23:05;;;;;;;;;3.00;2.75;;;;;24.23;40.67;101606.41;5092030;27;51259;-60
2021/08/27 11:25:30;;;;;;;;;3.00;2.00;;;;;24.22;40.58;101613.03;5095451;27;51230;-61
2021/08/27 11:28:17;;;;;;;;;3.00;2.00;;;;;24.21;40.38;101608.56;5089131;27;52097;-60
2021/08/27 11:30:44;;;;;;;;;2.00;2.00;;;;;24.21;40.55;101609.41;5092408;27;50988;-60